Time;durP1;ratioP1;P1;durP2;ratioP2;P2;SDS_P1;SDS_P2;PMS_P1;PMS_P2;Temp;Humidity;BMP_temperature;BMP_pressure;BME280_temperature;BME280_humidity;BME280_pressure;Samples;Min_cycle;Max_cycle;Signal;HPM_P1;HPM_P2
2022/11/09 00:02:31;;;;;;;19.45;10.90;;;23.90;44.10;;;;;;7636899;22;83830;-57
2022/11/09 00:05:32;;;;;;;18.67;9.90;;;24.00;44.30;;;;;;7634497;22;83598;-59
2022/11/09 00:08:32;;;;;;;15.13;9.75;;;24.00;44.30;;;;;;7640058;22;82721;-59
2022/11/09 00:11:33;;;;;;;19.33;10.73;;;24.00;44.30;;;;;;7641031;22;80987;-59
2022/11/09 00:14:33;;;;;;;17.77;10.98;;;24.00;44.90;;;;;;7636942;22;82739;-59
2022/11/09 00:17:34;;;;;;;18.80;10.63;;;24.00;44.30;;;;;;7634591;22;84822;-58
2022/11/09 00:20:34;;;;;;;15.25;10.80;;;24.00;44.30;;;;;;7635210;22;82886;-61
2022/11/09 00:23:35;;;;;;;20.38;11.85;;;24.00;44.20;;;;;;7637720;22;84156;-61
2022/11/09 00:26:35;;;;;;;17.50;11.30;;;24.00;44.30;;;;;;7635189;22;83176;-61
2022/11/09 00:29:36;;;;;;;18.17;11.32;;;23.90;44.20;;;;;;7611637;22;83244;-61
2022/11/09 00:32:36;;;;;;;17.60;11.70;;;24.00;44.30;;;;;;7597633;23;83938;-60
2022/11/09 00:35:37;;;;;;;18.08;11.30;;;23.90;44.20;;;;;;7600230;23;83036;-61
2022/11/09 00:38:39;;;;;;;20.42;11.98;;;23.90;44.30;;;;;;7598488;23;84715;-58
2022/11/09 00:41:39;;;;;;;19.88;11.40;;;24.00;44.20;;;;;;7596526;23;85183;-58
2022/11/09 00:44:40;;;;;;;17.15;11.32;;;23.90;44.30;;;;;;7599535;23;86118;-59
2022/11/09 00:47:42;;;;;;;19.42;11.93;;;23.90;44.30;;;;;;7597912;23;85821;-58
2022/11/09 00:50:42;;;;;;;19.17;11.93;;;23.90;44.40;;;;;;7595765;23;85655;-59
2022/11/09 00:53:47;;;;;;;21.63;12.18;;;23.90;44.40;;;;;;7597824;23;85477;-58
2022/11/09 00:56:47;;;;;;;16.30;10.65;;;23.90;44.40;;;;;;7593805;23;85272;-57
2022/11/09 00:59:48;;;;;;;16.92;11.27;;;23.90;44.40;;;;;;7599002;23;82831;-58
2022/11/09 01:02:49;;;;;;;19.98;11.75;;;23.90;44.40;;;;;;7601536;23;83200;-58
2022/11/09 01:05:49;;;;;;;19.30;11.45;;;23.90;44.40;;;;;;7594278;23;83971;-59
2022/11/09 01:08:51;;;;;;;22.58;11.82;;;23.90;44.30;;;;;;7595672;22;84586;-59
2022/11/09 01:11:51;;;;;;;18.08;10.98;;;23.90;44.30;;;;;;7598027;23;85956;-58
2022/11/09 01:14:55;;;;;;;17.45;10.45;;;23.90;44.30;;;;;;7595563;23;85078;-59
2022/11/09 01:17:56;;;;;;;17.92;11.85;;;23.90;44.40;;;;;;7597190;23;82578;-59
2022/11/09 01:20:58;;;;;;;20.95;11.15;;;23.90;44.30;;;;;;7598538;23;84478;-57
2022/11/09 01:24:00;;;;;;;18.20;11.73;;;23.90;44.30;;;;;;7597141;23;86127;-58
2022/11/09 01:27:01;;;;;;;16.80;10.75;;;23.80;44.30;;;;;;7596863;23;85855;-57
2022/11/09 01:30:01;;;;;;;17.50;11.27;;;23.80;44.20;;;;;;7654546;22;83407;-57
2022/11/09 01:33:02;;;;;;;17.83;11.07;;;23.80;44.30;;;;;;7672116;22;83875;-58
2022/11/09 01:36:02;;;;;;;18.00;10.82;;;23.80;44.10;;;;;;7672748;22;82876;-59
2022/11/09 01:39:05;;;;;;;17.23;10.55;;;23.80;44.10;;;;;;7643572;22;86246;-59
2022/11/09 01:42:05;;;;;;;19.63;11.52;;;23.80;44.10;;;;;;7671902;22;82956;-59
2022/11/09 01:45:06;;;;;;;17.63;11.07;;;23.80;44.10;;;;;;7644628;22;84061;-59
2022/11/09 01:48:06;;;;;;;17.33;12.02;;;23.80;44.10;;;;;;7643384;22;83835;-59
2022/11/09 01:51:07;;;;;;;16.83;11.07;;;23.80;44.10;;;;;;7674001;22;83320;-59
2022/11/09 01:54:07;;;;;;;17.20;10.98;;;23.80;44.00;;;;;;7669833;22;82671;-59
2022/11/09 01:57:08;;;;;;;16.90;10.80;;;23.80;43.90;;;;;;7671832;22;84605;-59
2022/11/09 02:00:08;;;;;;;14.75;10.73;;;23.80;44.00;;;;;;7644149;22;84971;-59
2022/11/09 02:03:15;;;;;;;20.38;11.35;;;23.80;43.90;;;;;;7643210;22;90130;-60
2022/11/09 02:06:16;;;;;;;17.38;10.95;;;23.80;44.10;;;;;;7675715;22;83343;-60
2022/11/09 02:09:16;;;;;;;18.65;11.00;;;23.80;44.00;;;;;;7671968;22;82989;-60
2022/11/09 02:12:17;;;;;;;20.90;10.32;;;23.80;43.90;;;;;;7672964;22;83842;-59
2022/11/09 02:15:18;;;;;;;16.88;10.57;;;23.80;43.80;;;;;;7642553;22;85421;-59
2022/11/09 02:18:19;;;;;;;17.33;9.75;;;23.80;43.80;;;;;;7676100;22;83058;-58
2022/11/09 02:21:19;;;;;;;17.73;10.85;;;23.70;43.80;;;;;;7675042;22;82764;-59
2022/11/09 02:24:21;;;;;;;17.65;10.70;;;23.70;43.70;;;;;;7645082;22;84712;-58
2022/11/09 02:27:21;;;;;;;16.65;10.52;;;23.70;43.70;;;;;;7671867;22;83086;-59
2022/11/09 02:30:23;;;;;;;14.73;9.70;;;23.70;43.70;;;;;;7645751;22;85725;-58
2022/11/09 02:33:24;;;;;;;16.80;10.30;;;23.70;43.70;;;;;;7674757;22;83013;-60
2022/11/09 02:36:25;;;;;;;17.42;10.35;;;23.70;43.80;;;;;;7646029;22;83143;-60
2022/11/09 02:39:26;;;;;;;14.68;10.43;;;23.70;43.60;;;;;;7645583;22;84801;-59
2022/11/09 02:42:27;;;;;;;15.40;9.57;;;23.70;43.70;;;;;;7647026;22;85773;-59
2022/11/09 02:45:29;;;;;;;15.23;9.70;;;23.70;43.60;;;;;;7676391;22;85523;-59
2022/11/09 02:48:29;;;;;;;15.70;9.52;;;23.70;43.60;;;;;;7677653;22;80091;-58
2022/11/09 02:51:31;;;;;;;14.82;10.13;;;23.70;43.50;;;;;;7673223;22;83363;-58
2022/11/09 02:54:32;;;;;;;16.10;10.63;;;23.70;43.50;;;;;;7648871;22;82936;-58
2022/11/09 02:57:33;;;;;;;15.95;10.57;;;23.70;43.50;;;;;;7644598;22;84999;-59
2022/11/09 03:00:34;;;;;;;18.23;10.55;;;23.70;43.50;;;;;;7646890;22;84689;-59
2022/11/09 03:03:35;;;;;;;15.93;10.13;;;23.60;43.40;;;;;;7671151;22;83052;-59
2022/11/09 03:06:35;;;;;;;14.23;9.80;;;23.60;43.40;;;;;;7674672;22;83166;-59
2022/11/09 03:09:42;;;;;;;15.43;9.63;;;23.60;43.40;;;;;;7675854;22;84525;-59
2022/11/09 03:12:43;;;;;;;16.35;9.38;;;23.60;43.40;;;;;;7675016;22;82300;-59
2022/11/09 03:15:47;;;;;;;17.40;10.35;;;23.60;43.30;;;;;;7648183;22;83130;-59
2022/11/09 03:18:47;;;;;;;15.18;9.90;;;23.60;43.20;;;;;;7649011;22;84191;-58
2022/11/09 03:21:48;;;;;;;16.67;10.27;;;23.60;43.20;;;;;;7649331;22;84056;-59
2022/11/09 03:24:49;;;;;;;13.68;9.82;;;23.60;43.20;;;;;;7647924;22;82938;-65
2022/11/09 03:57:19;;;;;;;18.65;10.95;;;23.50;42.80;;;;;;7673140;22;87197;-64
2022/11/09 04:00:20;;;;;;;15.98;10.27;;;23.50;42.80;;;;;;7673372;22;83044;-59
2022/11/09 04:03:23;;;;;;;17.08;10.80;;;23.50;42.80;;;;;;7675706;22;84318;-59
2022/11/09 04:06:23;;;;;;;15.65;10.48;;;23.50;43.00;;;;;;7673838;22;83557;-59
2022/11/09 04:09:24;;;;;;;16.98;10.23;;;23.60;43.20;;;;;;7672989;22;83476;-59
2022/11/09 04:12:24;;;;;;;19.00;11.60;;;23.60;42.90;;;;;;7674746;22;83367;-59
2022/11/09 04:15:25;;;;;;;17.10;11.50;;;23.60;42.90;;;;;;7674568;22;82943;-58
2022/11/09 04:18:26;;;;;;;16.50;10.65;;;23.70;42.80;;;;;;7648335;22;86090;-58
2022/11/09 04:21:26;;;;;;;20.05;10.85;;;23.70;42.60;;;;;;7673583;22;82830;-58
2022/11/09 04:24:27;;;;;;;16.83;10.80;;;23.80;42.60;;;;;;7673722;22;83652;-59
2022/11/09 04:27:28;;;;;;;18.15;10.40;;;23.90;42.60;;;;;;7673592;22;82763;-58
2022/11/09 04:30:29;;;;;;;18.08;9.98;;;23.90;42.60;;;;;;7672817;22;83467;-58
2022/11/09 04:33:29;;;;;;;16.30;10.18;;;23.90;42.60;;;;;;7673139;22;83028;-58
2022/11/09 04:36:30;;;;;;;19.00;9.50;;;24.00;42.70;;;;;;7673749;22;83082;-59
2022/11/09 04:39:30;;;;;;;13.82;9.27;;;23.90;42.80;;;;;;7677001;22;83361;-57
2022/11/09 04:42:31;;;;;;;13.52;8.63;;;24.00;42.80;;;;;;7676354;22;80209;-59
2022/11/09 04:45:32;;;;;;;13.95;8.98;;;24.00;42.70;;;;;;7677817;22;80293;-58
2022/11/09 04:48:32;;;;;;;13.70;8.75;;;24.00;42.60;;;;;;7664954;22;81959;-59
2022/11/09 04:51:33;;;;;;;13.57;8.60;;;24.10;42.70;;;;;;7669594;22;80800;-59
2022/11/09 04:54:33;;;;;;;21.33;9.15;;;24.10;42.70;;;;;;7676173;22;81539;-59
2022/11/09 04:57:34;;;;;;;12.48;8.75;;;24.10;42.70;;;;;;7716014;22;80205;-59
2022/11/09 05:00:34;;;;;;;16.13;8.57;;;24.10;42.80;;;;;;7705080;22;81121;-58
2022/11/09 05:03:34;;;;;;;11.77;7.78;;;24.10;42.70;;;;;;7703144;22;80121;-58
2022/11/09 05:06:35;;;;;;;11.15;8.23;;;24.10;42.90;;;;;;7708066;22;80723;-60
2022/11/09 05:09:35;;;;;;;21.33;8.15;;;24.10;43.20;;;;;;7712116;22;80190;-59
2022/11/09 05:12:36;;;;;;;15.45;8.55;;;24.10;43.50;;;;;;7717792;22;80572;-59
2022/11/09 05:15:36;;;;;;;14.70;8.15;;;24.20;43.30;;;;;;7678825;22;80520;-64
2022/11/09 05:18:37;;;;;;;14.63;8.18;;;24.20;43.10;;;;;;7713226;22;80828;-65
2022/11/09 05:21:37;;;;;;;19.45;9.25;;;24.20;42.90;;;;;;7712737;22;80055;-65
2022/11/09 05:24:38;;;;;;;13.45;8.95;;;24.30;42.90;;;;;;7696090;22;80827;-62
2022/11/09 05:27:38;;;;;;;18.58;9.15;;;24.30;42.80;;;;;;7713760;22;80476;-66
2022/11/09 05:30:39;;;;;;;18.42;9.57;;;24.30;42.80;;;;;;7716265;22;80154;-64
2022/11/09 05:33:39;;;;;;;16.23;8.95;;;24.30;42.80;;;;;;7715405;22;80334;-63
2022/11/09 05:36:40;;;;;;;15.57;9.40;;;24.30;42.70;;;;;;7713240;22;80132;-60
2022/11/09 05:39:40;;;;;;;17.48;9.40;;;24.30;42.70;;;;;;7715702;22;80623;-59
2022/11/09 05:42:41;;;;;;;17.02;10.15;;;24.30;42.70;;;;;;7714571;22;82118;-59
2022/11/09 05:45:41;;;;;;;19.48;9.88;;;24.40;42.70;;;;;;7713790;22;82663;-60
2022/11/09 05:48:42;;;;;;;19.45;10.00;;;24.30;42.70;;;;;;7715616;22;82807;-60
2022/11/09 05:51:42;;;;;;;21.42;10.27;;;24.30;42.60;;;;;;7713012;22;82770;-60
2022/11/09 05:54:43;;;;;;;15.27;10.32;;;24.30;42.50;;;;;;7713980;22;84055;-61
2022/11/09 05:57:43;;;;;;;20.60;10.25;;;24.30;42.40;;;;;;7713499;22;82985;-59
2022/11/09 06:00:44;;;;;;;17.92;9.63;;;24.30;42.60;;;;;;7681799;22;85318;-60
2022/11/09 06:03:44;;;;;;;18.63;10.82;;;24.40;43.30;;;;;;7681146;22;83143;-60
2022/11/09 06:06:45;;;;;;;24.02;10.18;;;24.40;43.40;;;;;;7682213;22;90188;-60
2022/11/09 06:09:45;;;;;;;44.78;11.00;;;24.40;43.50;;;;;;7710691;22;82697;-62
2022/11/09 06:12:46;;;;;;;17.40;10.70;;;24.40;43.60;;;;;;7708968;22;84635;-62
2022/11/09 06:15:46;;;;;;;17.90;10.07;;;24.40;43.40;;;;;;7683955;22;82907;-61
2022/11/09 06:18:47;;;;;;;22.25;10.27;;;24.40;43.50;;;;;;7710453;22;83380;-62
2022/11/09 06:21:47;;;;;;;20.42;9.75;;;24.40;43.20;;;;;;7713639;22;83942;-61
2022/11/09 06:24:48;;;;;;;18.92;10.27;;;24.40;43.20;;;;;;7713343;22;81702;-61
2022/11/09 06:27:48;;;;;;;16.67;10.15;;;24.40;43.00;;;;;;7709383;22;84285;-61
2022/11/09 06:30:49;;;;;;;21.10;10.55;;;24.40;43.10;;;;;;7708500;22;83700;-62
2022/11/09 06:33:50;;;;;;;18.67;11.02;;;24.50;43.30;;;;;;7706647;22;84152;-62
2022/11/09 06:36:50;;;;;;;21.95;11.60;;;24.50;43.30;;;;;;7677361;22;84178;-62
2022/11/09 06:39:51;;;;;;;20.48;11.35;;;24.50;43.20;;;;;;7713631;22;82837;-60
2022/11/09 06:42:52;;;;;;;20.63;10.07;;;24.60;43.30;;;;;;7710642;22;82883;-62
2022/11/09 06:45:52;;;;;;;17.70;10.05;;;24.60;43.30;;;;;;7712426;22;83310;-58
2022/11/09 06:48:53;;;;;;;17.92;10.27;;;24.60;43.30;;;;;;7704320;22;83340;-57
2022/11/09 06:51:53;;;;;;;16.27;10.02;;;24.60;43.20;;;;;;7694410;22;84020;-55
2022/11/09 06:54:54;;;;;;;18.85;10.52;;;24.60;43.20;;;;;;7648861;22;84216;-56
2022/11/09 06:57:54;;;;;;;20.38;10.70;;;24.70;43.50;;;;;;7702612;22;82871;-52
2022/11/09 07:00:55;;;;;;;32.22;10.48;;;24.70;43.70;;;;;;7678558;22;86056;-53
2022/11/09 07:03:55;;;;;;;18.88;10.77;;;24.70;43.30;;;;;;7704997;22;82635;-57
2022/11/09 07:06:56;;;;;;;20.23;10.93;;;24.70;43.60;;;;;;7706308;22;82989;-54
2022/11/09 07:09:57;;;;;;;20.08;11.45;;;24.80;43.60;;;;;;7706515;22;83233;-56
2022/11/09 07:12:57;;;;;;;22.77;11.90;;;24.80;43.50;;;;;;7709867;22;82761;-58
2022/11/09 07:15:58;;;;;;;19.30;11.45;;;24.80;43.60;;;;;;7712131;22;83750;-58
2022/11/09 07:18:58;;;;;;;23.38;12.02;;;24.80;43.50;;;;;;7707300;22;84156;-51
2022/11/09 07:21:59;;;;;;;27.05;13.63;;;24.80;43.40;;;;;;7706729;22;83371;-60
2022/11/09 07:24:59;;;;;;;25.30;14.82;;;24.80;42.90;;;;;;7708068;22;82787;-60
2022/11/09 07:28:00;;;;;;;27.00;15.52;;;24.80;42.40;;;;;;7703037;22;83050;-61
2022/11/09 07:31:00;;;;;;;33.20;16.80;;;24.70;42.10;;;;;;7701855;22;83271;-59
2022/11/09 07:34:03;;;;;;;33.85;16.95;;;24.70;41.90;;;;;;7708792;22;83276;-60
2022/11/09 07:37:04;;;;;;;28.30;16.80;;;24.70;42.10;;;;;;7705030;22;83087;-60
2022/11/09 07:40:04;;;;;;;27.00;17.70;;;24.70;41.70;;;;;;7689822;22;83662;-60
2022/11/09 07:43:05;;;;;;;33.83;18.27;;;24.80;41.50;;;;;;7699595;22;83265;-59
2022/11/09 07:46:06;;;;;;;33.72;18.55;;;24.80;41.30;;;;;;7673452;22;85547;-60
2022/11/09 07:49:06;;;;;;;36.50;20.00;;;24.80;41.20;;;;;;7711615;22;82549;-59
2022/11/09 07:52:07;;;;;;;44.63;19.30;;;24.80;41.10;;;;;;7683593;22;83766;-59
2022/11/09 07:55:07;;;;;;;39.13;19.52;;;24.90;40.90;;;;;;7710026;22;82810;-60
2022/11/09 07:58:08;;;;;;;37.25;20.08;;;24.70;40.30;;;;;;7706048;22;84076;-59
2022/11/09 08:01:08;;;;;;;39.95;22.05;;;24.70;40.10;;;;;;7705253;22;83550;-61
2022/11/09 08:04:09;;;;;;;35.47;21.55;;;24.70;40.10;;;;;;7708007;22;84410;-61
2022/11/09 08:07:10;;;;;;;34.20;21.70;;;24.60;40.10;;;;;;7712935;22;84197;-60
2022/11/09 08:10:10;;;;;;;37.28;23.38;;;24.60;39.70;;;;;;7709556;22;82975;-61
2022/11/09 08:13:11;;;;;;;40.72;22.73;;;24.50;39.50;;;;;;7713244;22;82727;-62
2022/11/09 08:16:11;;;;;;;37.47;22.75;;;24.40;39.50;;;;;;7703104;22;83191;-62
2022/11/09 08:19:12;;;;;;;82.53;41.78;;;24.30;39.80;;;;;;7713278;22;83241;-64
2022/11/09 08:22:13;;;;;;;218.48;103.82;;;24.30;40.10;;;;;;7714419;22;83614;-64
2022/11/09 08:43:39;;;;;;;298.80;131.57;;;24.40;40.00;;;;;;7671286;22;88447;-62
2022/11/09 08:46:40;;;;;;;253.30;110.88;;;24.40;40.10;;;;;;7669084;22;85439;-61
2022/11/09 08:49:42;;;;;;;252.18;117.35;;;24.50;40.40;;;;;;7667692;22;85660;-60
2022/11/09 08:52:43;;;;;;;220.95;105.70;;;24.60;40.50;;;;;;7668971;22;85604;-60
2022/11/09 08:55:43;;;;;;;209.55;103.95;;;24.60;40.50;;;;;;7640683;22;86354;-61
2022/11/09 08:58:44;;;;;;;256.63;123.05;;;24.60;40.40;;;;;;7667053;22;85625;-61
2022/11/09 09:01:44;;;;;;;261.83;124.85;;;24.60;40.60;;;;;;7671409;22;85317;-62
2022/11/09 09:04:45;;;;;;;256.83;125.85;;;24.70;40.70;;;;;;7671346;22;85990;-61
2022/11/09 09:07:45;;;;;;;213.98;105.88;;;24.70;40.70;;;;;;7673140;22;87888;-59
2022/11/09 09:10:46;;;;;;;170.75;86.30;;;24.70;40.80;;;;;;7669097;22;85542;-61
2022/11/09 09:13:46;;;;;;;159.68;73.20;;;24.70;40.90;;;;;;7674385;22;85276;-61
2022/11/09 09:16:47;;;;;;;134.05;63.88;;;24.70;40.70;;;;;;7670791;22;83733;-67
2022/11/09 09:19:47;;;;;;;119.65;57.30;;;24.70;40.70;;;;;;7676538;22;83220;-69
2022/11/09 09:22:48;;;;;;;101.40;46.97;;;24.70;40.70;;;;;;7676788;22;83556;-59
2022/11/09 09:25:48;;;;;;;87.85;41.95;;;24.70;40.30;;;;;;7675290;22;83885;-60
2022/11/09 09:28:49;;;;;;;88.57;39.50;;;24.60;40.30;;;;;;7676654;22;82945;-60
2022/11/09 09:31:49;;;;;;;84.47;37.40;;;24.60;40.30;;;;;;7675454;22;83253;-61
2022/11/09 09:34:49;;;;;;;82.30;37.53;;;24.60;40.70;;;;;;7673799;22;84118;-61
2022/11/09 09:37:50;;;;;;;91.70;41.40;;;24.70;41.60;;;;;;7675333;22;83986;-58
2022/11/09 09:40:50;;;;;;;80.43;35.13;;;24.90;41.90;;;;;;7677567;22;83303;-59
2022/11/09 09:43:51;;;;;;;81.07;35.08;;;25.00;42.10;;;;;;7681612;22;84034;-58
2022/11/09 09:46:52;;;;;;;62.30;31.35;;;25.10;42.30;;;;;;7714726;22;82873;-60
2022/11/09 09:49:52;;;;;;;56.20;28.20;;;25.30;42.90;;;;;;7714801;22;82706;-60
2022/11/09 09:52:53;;;;;;;54.85;27.75;;;25.40;42.90;;;;;;7713952;22;83464;-59
2022/11/09 09:55:53;;;;;;;55.72;28.13;;;25.50;43.00;;;;;;7711016;22;83056;-61
2022/11/09 09:58:54;;;;;;;54.47;25.52;;;25.50;43.10;;;;;;7713770;22;83126;-61
2022/11/09 10:01:56;;;;;;;41.60;22.45;;;25.60;43.10;;;;;;7714342;22;83268;-60
2022/11/09 10:04:56;;;;;;;40.20;21.23;;;25.60;43.10;;;;;;7715977;22;82802;-61
2022/11/09 10:07:57;;;;;;;36.05;19.23;;;25.60;43.30;;;;;;7714795;22;82733;-60
2022/11/09 10:10:57;;;;;;;36.67;18.25;;;25.70;43.50;;;;;;7710005;22;82971;-61
2022/11/09 10:13:58;;;;;;;35.58;18.85;;;25.60;43.60;;;;;;7713641;22;84786;-62
2022/11/09 10:16:58;;;;;;;35.33;17.60;;;25.60;43.60;;;;;;7716851;22;83206;-61
2022/11/09 10:19:59;;;;;;;31.08;16.38;;;25.60;43.80;;;;;;7716975;22;82886;-61
2022/11/09 10:22:59;;;;;;;32.67;16.08;;;25.60;43.90;;;;;;7713016;22;83075;-61
2022/11/09 10:26:00;;;;;;;28.60;15.40;;;25.60;44.00;;;;;;7708992;22;82999;-61
2022/11/09 10:29:00;;;;;;;26.10;14.32;;;25.60;44.10;;;;;;7715011;22;83278;-62
2022/11/09 10:32:01;;;;;;;24.63;13.73;;;25.60;44.30;;;;;;7715873;22;82946;-62
2022/11/09 10:35:01;;;;;;;24.30;13.20;;;25.50;44.50;;;;;;7692164;22;83531;-60
2022/11/09 10:38:02;;;;;;;23.35;12.52;;;25.60;44.30;;;;;;7713235;22;82870;-60
2022/11/09 10:41:02;;;;;;;20.30;11.20;;;25.60;44.30;;;;;;7713476;22;83094;-59
2022/11/09 10:44:21;;;;;;;25.23;11.35;;;25.60;44.50;;;;;;7715074;22;82662;-59
2022/11/09 10:47:40;;;;;;;18.85;11.45;;;25.60;44.50;;;;;;7715350;22;84632;-59
2022/11/09 10:50:59;;;;;;;19.33;11.27;;;25.60;44.60;;;;;;7716172;22;83401;-59
2022/11/09 10:54:18;;;;;;;19.33;9.73;;;25.50;44.70;;;;;;7713154;22;86884;-58
2022/11/09 10:57:37;;;;;;;19.70;10.10;;;25.50;45.10;;;;;;7718184;22;82688;-58
2022/11/09 11:00:56;;;;;;;20.15;10.02;;;25.50;45.00;;;;;;7714291;22;83074;-59
2022/11/09 11:04:15;;;;;;;18.25;8.75;;;25.60;45.00;;;;;;7711609;22;88657;-59
2022/11/09 11:07:34;;;;;;;15.70;9.23;;;25.60;45.10;;;;;;7715477;22;82595;-59
2022/11/09 11:10:53;;;;;;;18.85;10.45;;;25.70;44.90;;;;;;7715447;22;80275;-73
2022/11/09 11:14:13;;;;;;;17.77;8.05;;;25.70;45.00;;;;;;7703611;22;84440;-60
2022/11/09 11:17:32;;;;;;;20.00;8.35;;;25.70;45.00;;;;;;7714421;22;82601;-59
2022/11/09 11:20:51;;;;;;;16.60;7.18;;;25.70;45.10;;;;;;7717450;22;81597;-59
2022/11/09 11:24:10;;;;;;;11.90;7.15;;;25.70;45.10;;;;;;7716015;22;80386;-59
2022/11/09 11:27:29;;;;;;;13.80;7.47;;;25.90;45.50;;;;;;7713241;22;84512;-60
2022/11/09 11:30:48;;;;;;;11.93;5.72;;;25.80;45.10;;;;;;7717286;22;81011;-59
2022/11/09 11:34:07;;;;;;;9.35;5.70;;;25.80;45.10;;;;;;7718860;22;80547;-59
2022/11/09 11:37:26;;;;;;;10.15;4.95;;;25.90;44.90;;;;;;7705493;22;81313;-59
2022/11/09 11:40:45;;;;;;;8.93;4.93;;;26.10;44.80;;;;;;7720858;22;80531;-59
2022/11/09 14:25:23;;;;;;;150.05;73.53;;;27.70;40.30;;;;;;7671127;22;84801;-62
2022/11/09 14:28:42;;;;;;;143.60;64.75;;;27.40;40.40;;;;;;7669886;22;82690;-65
2022/11/09 14:32:01;;;;;;;117.95;56.67;;;27.10;40.70;;;;;;7672883;22;82930;-66
2022/11/09 14:35:20;;;;;;;99.35;49.30;;;26.80;40.90;;;;;;7673801;22;83674;-63
2022/11/09 14:38:40;;;;;;;99.45;44.33;;;26.60;40.90;;;;;;7670501;22;83142;-65
2022/11/09 14:41:59;;;;;;;88.22;40.33;;;26.40;41.20;;;;;;7673961;22;84226;-69
2022/11/09 14:45:18;;;;;;;78.82;37.22;;;26.20;41.60;;;;;;7674549;22;87127;-59
2022/11/09 14:48:37;;;;;;;64.63;30.65;;;26.10;42.10;;;;;;7677809;22;82967;-60
2022/11/09 14:51:56;;;;;;;54.03;28.17;;;26.10;42.50;;;;;;7677462;22;83705;-59
2022/11/09 14:55:15;;;;;;;60.45;28.00;;;25.90;42.70;;;;;;7674993;22;82800;-59
2022/11/09 14:58:34;;;;;;;58.28;27.25;;;25.90;42.80;;;;;;7669682;22;83784;-60
2022/11/09 15:01:53;;;;;;;47.90;24.88;;;25.70;42.80;;;;;;7662406;22;83734;-59
2022/11/09 15:05:12;;;;;;;48.63;23.08;;;25.70;43.00;;;;;;7633077;22;83804;-59
2022/11/09 15:08:31;;;;;;;52.78;23.77;;;25.60;43.10;;;;;;7661015;22;83750;-59
2022/11/09 15:11:50;;;;;;;45.03;23.52;;;25.50;43.00;;;;;;7669742;22;83126;-59
2022/11/09 15:15:09;;;;;;;51.75;20.23;;;25.50;43.10;;;;;;7669909;22;82977;-59
2022/11/09 15:18:28;;;;;;;43.47;22.38;;;25.40;43.40;;;;;;7671444;22;86285;-60
2022/11/09 15:21:47;;;;;;;40.05;19.42;;;25.30;43.20;;;;;;7668919;22;83810;-60
2022/11/09 15:25:06;;;;;;;48.97;21.08;;;25.20;43.20;;;;;;7707015;22;82862;-58
2022/11/09 15:28:25;;;;;;;43.85;22.55;;;25.20;43.40;;;;;;7708307;22;83019;-58
2022/11/09 15:31:45;;;;;;;41.67;21.42;;;25.10;43.40;;;;;;7704810;22;82899;-58
2022/11/09 15:35:04;;;;;;;43.22;22.70;;;25.10;43.40;;;;;;7688574;22;84018;-59
2022/11/09 15:38:23;;;;;;;38.63;21.02;;;25.10;43.40;;;;;;7703663;22;82703;-66
2022/11/09 15:41:42;;;;;;;49.75;21.98;;;25.10;43.60;;;;;;7704989;22;83293;-67
2022/11/09 15:45:01;;;;;;;40.25;20.63;;;25.00;43.30;;;;;;7699607;22;83713;-66
2022/11/09 15:48:20;;;;;;;40.95;21.88;;;25.00;43.50;;;;;;7707488;22;87576;-65
2022/11/09 15:51:39;;;;;;;54.08;23.23;;;24.80;43.20;;;;;;7713340;22;82608;-65
2022/11/09 15:54:58;;;;;;;41.33;22.60;;;24.80;43.40;;;;;;7713645;22;83215;-66
2022/11/09 15:58:17;;;;;;;52.70;24.27;;;24.80;43.60;;;;;;7713162;22;82543;-60
2022/11/09 16:01:37;;;;;;;47.35;23.85;;;24.80;43.60;;;;;;7714232;22;83362;-60
2022/11/09 16:04:56;;;;;;;46.45;24.70;;;24.70;43.80;;;;;;7712530;22;82908;-61
2022/11/09 16:08:15;;;;;;;45.95;23.77;;;24.70;43.90;;;;;;7690821;22;83325;-59
2022/11/09 16:11:35;;;;;;;43.25;23.20;;;24.70;44.10;;;;;;7710032;22;83744;-60
2022/11/09 16:14:53;;;;;;;42.40;21.23;;;24.70;44.50;;;;;;7708359;22;84470;-61
2022/11/09 16:18:13;;;;;;;42.60;21.67;;;24.70;44.50;;;;;;7715894;22;83216;-59
2022/11/09 16:21:32;;;;;;;48.10;23.50;;;24.80;44.90;;;;;;7714347;22;87403;-59
2022/11/09 16:24:51;;;;;;;123.97;61.47;;;24.80;44.90;;;;;;7705306;22;83178;-59
2022/11/09 16:28:10;;;;;;;178.98;86.25;;;24.90;44.80;;;;;;7713072;22;83053;-59
2022/11/09 16:31:29;;;;;;;312.67;143.82;;;24.90;44.90;;;;;;7712699;22;83076;-60
2022/11/09 16:34:48;;;;;;;300.92;138.73;;;24.90;45.50;;;;;;7710622;22;86204;-58
2022/11/09 16:38:07;;;;;;;255.02;115.75;;;24.90;45.60;;;;;;7709294;22;85064;-58
2022/11/09 16:41:26;;;;;;;216.30;98.43;;;25.00;45.80;;;;;;7708476;22;85656;-58
2022/11/09 16:44:45;;;;;;;161.52;81.15;;;25.00;46.00;;;;;;7711699;22;84949;-59
2022/11/09 16:48:04;;;;;;;158.65;72.78;;;25.10;45.90;;;;;;7707374;22;82739;-58
2022/11/09 16:51:23;;;;;;;137.43;65.28;;;25.10;46.10;;;;;;7705874;22;88571;-59
2022/11/09 16:54:42;;;;;;;136.35;60.40;;;25.10;46.20;;;;;;7706671;22;82898;-59
2022/11/09 16:58:01;;;;;;;124.78;58.30;;;25.00;46.20;;;;;;7706176;22;82717;-59
2022/11/09 17:01:21;;;;;;;111.78;51.28;;;25.10;46.10;;;;;;7706867;22;83320;-58
2022/11/09 17:04:40;;;;;;;91.93;45.15;;;25.10;46.00;;;;;;7703477;22;83750;-59
2022/11/09 17:07:59;;;;;;;96.88;44.03;;;25.10;46.10;;;;;;7706342;22;84562;-58
2022/11/09 17:11:18;;;;;;;94.03;41.55;;;25.10;46.00;;;;;;7705860;22;82888;-63
2022/11/09 17:14:38;;;;;;;87.18;39.25;;;25.10;46.00;;;;;;7706681;22;82902;-63
2022/11/09 17:17:57;;;;;;;86.82;38.70;;;25.10;45.90;;;;;;7708489;22;82903;-64
2022/11/09 17:21:15;;;;;;;68.13;33.78;;;25.10;45.80;;;;;;7707306;22;87032;-57
2022/11/09 17:24:35;;;;;;;60.03;32.30;;;25.10;45.80;;;;;;7705706;22;82852;-61
2022/11/09 17:27:54;;;;;;;65.82;32.20;;;25.10;45.70;;;;;;7705091;22;83099;-63
2022/11/09 17:31:12;;;;;;;56.28;28.40;;;25.10;45.70;;;;;;7709077;22;82897;-64
2022/11/09 17:34:31;;;;;;;55.53;28.40;;;25.10;45.60;;;;;;7707121;22;84355;-63
2022/11/09 17:37:51;;;;;;;60.08;27.40;;;25.10;45.60;;;;;;7713352;22;83062;-62
2022/11/09 17:41:10;;;;;;;50.80;25.20;;;25.10;45.60;;;;;;7692456;22;84192;-62
2022/11/09 17:44:28;;;;;;;48.47;25.25;;;25.10;45.80;;;;;;7712718;22;84788;-65
2022/11/09 17:47:47;;;;;;;49.10;24.33;;;25.10;45.70;;;;;;7714492;22;83501;-56
2022/11/09 17:51:06;;;;;;;43.60;23.42;;;25.10;45.50;;;;;;7712778;22;84267;-57
2022/11/09 17:54:28;;;;;;;44.63;23.52;;;25.00;45.30;;;;;;7713405;22;86239;-61
2022/11/09 17:57:47;;;;;;;42.22;21.75;;;25.00;45.30;;;;;;7710140;22;83136;-61
2022/11/09 18:01:06;;;;;;;44.60;21.50;;;25.00;45.40;;;;;;7711495;22;83135;-55
2022/11/09 18:04:25;;;;;;;44.38;21.13;;;25.00;45.30;;;;;;7715480;22;83063;-62
2022/11/09 18:07:44;;;;;;;41.75;22.40;;;24.90;45.30;;;;;;7718059;22;83627;-63
2022/11/09 18:11:03;;;;;;;38.75;19.63;;;24.90;45.50;;;;;;7714695;22;83060;-63
2022/11/09 18:14:22;;;;;;;45.55;21.83;;;24.90;45.40;;;;;;7714490;22;83066;-67
2022/11/09 18:17:41;;;;;;;38.65;20.95;;;24.80;45.30;;;;;;7707257;22;83593;-64
2022/11/09 18:21:00;;;;;;;39.60;19.77;;;24.80;45.30;;;;;;7709233;22;83711;-66
2022/11/09 18:24:19;;;;;;;32.47;18.52;;;24.80;45.50;;;;;;7689532;22;87244;-62
2022/11/09 18:27:38;;;;;;;35.70;18.58;;;24.80;45.30;;;;;;7710307;22;83929;-64
2022/11/09 18:30:57;;;;;;;34.38;18.85;;;24.80;45.50;;;;;;7703163;22;83894;-66
2022/11/09 18:34:16;;;;;;;31.80;18.98;;;24.80;45.40;;;;;;7708416;22;83478;-65
2022/11/09 18:37:35;;;;;;;35.20;18.80;;;24.80;45.40;;;;;;7707847;22;83145;-67
2022/11/09 18:40:54;;;;;;;36.45;18.05;;;24.80;45.50;;;;;;7709161;22;83321;-68
2022/11/09 18:44:13;;;;;;;52.33;18.73;;;24.80;45.60;;;;;;7709246;22;82936;-65
2022/11/09 18:47:32;;;;;;;34.20;18.92;;;24.80;45.70;;;;;;7709063;22;82925;-66
2022/11/09 18:50:51;;;;;;;28.98;17.42;;;24.80;45.70;;;;;;7709549;22;83217;-66
2022/11/09 18:54:10;;;;;;;31.80;18.52;;;24.80;45.70;;;;;;7709663;22;82902;-65
2022/11/09 18:57:29;;;;;;;27.45;17.23;;;24.80;45.70;;;;;;7714859;22;86129;-65
2022/11/09 19:00:48;;;;;;;32.55;17.58;;;24.80;45.80;;;;;;7707374;22;83274;-62
2022/11/09 19:04:07;;;;;;;29.23;16.38;;;24.70;45.80;;;;;;7714157;22;83244;-60
2022/11/09 19:07:27;;;;;;;25.33;16.65;;;24.70;45.80;;;;;;7707564;22;84474;-61
2022/11/09 19:10:46;;;;;;;27.77;16.33;;;24.80;45.90;;;;;;7713485;22;82632;-60
2022/11/09 19:14:05;;;;;;;29.33;18.25;;;24.70;45.90;;;;;;7713402;22;85018;-62
2022/11/09 19:17:24;;;;;;;29.65;17.15;;;24.70;46.00;;;;;;7698506;22;82764;-61
2022/11/09 19:20:43;;;;;;;29.65;17.88;;;24.70;46.10;;;;;;7710855;22;82757;-49